Time;durP1;ratioP1;P1;durP2;ratioP2;P2;SDS_P1;SDS_P2;PMS_P1;PMS_P2;Temp;Humidity;BMP_temperature;BMP_pressure;BME280_temperature;BME280_humidity;BME280_pressure;Samples;Min_cycle;Max_cycle;Signal;HPM_P1;HPM_P2
2023/05/11 00:01:46;;;;;;;8.23;6.10;;;12.30;99.90;;;;;;5115643;28;20175;-45
2023/05/11 00:04:11;;;;;;;7.07;6.37;;;12.30;99.90;;;;;;5115200;28;20217;-48
2023/05/11 00:06:37;;;;;;;7.77;6.77;;;12.30;99.90;;;;;;5114817;28;20639;-45
2023/05/11 00:09:03;;;;;;;7.23;6.37;;;12.30;99.90;;;;;;5115136;28;20178;-45
2023/05/11 00:11:28;;;;;;;8.20;6.33;;;12.30;99.90;;;;;;5115218;28;20174;-47
2023/05/11 00:13:54;;;;;;;8.33;5.87;;;12.30;99.90;;;;;;5114736;28;20201;-46
2023/05/11 00:16:20;;;;;;;7.73;6.00;;;12.30;99.90;;;;;;5114706;28;20257;-46
2023/05/11 00:18:45;;;;;;;7.23;5.90;;;12.30;99.90;;;;;;5113330;28;20180;-45
2023/05/11 00:21:11;;;;;;;6.03;5.43;;;12.30;99.90;;;;;;5114394;28;20240;-45
2023/05/11 00:23:37;;;;;;;7.77;6.10;;;12.30;99.90;;;;;;5114613;28;20193;-47
2023/05/11 00:26:02;;;;;;;6.67;5.80;;;12.30;99.90;;;;;;5114855;28;20559;-46
2023/05/11 00:28:28;;;;;;;7.57;5.77;;;12.20;99.90;;;;;;5114603;28;20168;-47
2023/05/11 00:30:57;;;;;;;6.57;5.33;;;12.30;99.90;;;;;;5114633;28;20711;-46
2023/05/11 00:33:23;;;;;;;5.83;5.17;;;12.20;99.90;;;;;;5114312;28;20268;-47
2023/05/11 00:35:49;;;;;;;5.73;4.67;;;12.20;99.90;;;;;;5114168;28;20191;-46
2023/05/11 00:38:15;;;;;;;8.13;5.47;;;12.20;99.90;;;;;;5115013;28;20182;-46
2023/05/11 00:40:41;;;;;;;5.50;4.97;;;12.30;99.90;;;;;;5114190;28;20205;-45
2023/05/11 00:43:06;;;;;;;6.00;5.27;;;12.30;99.90;;;;;;5114146;28;20204;-46
2023/05/11 00:45:33;;;;;;;6.80;5.83;;;12.20;99.90;;;;;;5114103;28;20209;-46
2023/05/11 00:47:59;;;;;;;7.50;6.50;;;12.30;99.90;;;;;;5114120;28;20223;-46
2023/05/11 00:50:26;;;;;;;6.97;5.73;;;12.30;99.90;;;;;;5114113;28;20619;-47
2023/05/11 00:52:51;;;;;;;6.10;5.47;;;12.20;99.90;;;;;;5113937;28;20233;-45
2023/05/11 00:55:20;;;;;;;5.83;5.10;;;12.20;99.90;;;;;;5114223;28;20179;-46
2023/05/11 00:57:46;;;;;;;5.93;5.03;;;12.20;99.90;;;;;;5114186;28;20191;-47
2023/05/11 01:00:12;;;;;;;7.13;5.10;;;12.20;99.90;;;;;;5114019;28;20233;-46
2023/05/11 01:02:38;;;;;;;5.27;4.77;;;12.30;99.90;;;;;;5114233;28;20254;-45
2023/05/11 01:05:04;;;;;;;5.77;5.17;;;12.20;99.90;;;;;;5114418;28;20179;-47
2023/05/11 01:07:57;;;;;;;5.27;4.67;;;12.20;99.90;;;;;;5114003;28;20178;-44
2023/05/11 01:10:30;;;;;;;6.10;4.30;;;12.20;99.90;;;;;;5114255;28;20173;-46
2023/05/11 01:13:14;;;;;;;4.83;4.37;;;12.30;99.90;;;;;;5114159;28;20666;-45
2023/05/11 01:15:55;;;;;;;5.13;4.33;;;12.20;99.90;;;;;;5114171;28;20170;-45
2023/05/11 01:18:41;;;;;;;5.87;4.50;;;12.20;99.90;;;;;;5114103;28;20190;-46
2023/05/11 01:21:08;;;;;;;5.33;4.83;;;12.20;99.90;;;;;;5118580;28;20546;-47
2023/05/11 01:24:01;;;;;;;6.67;4.87;;;12.20;99.90;;;;;;5118218;28;20632;-46
2023/05/11 01:26:26;;;;;;;5.67;5.07;;;12.20;99.90;;;;;;5118549;28;20631;-46
2023/05/11 01:29:34;;;;;;;5.93;5.33;;;12.20;99.90;;;;;;5116949;28;20189;-46
2023/05/11 01:32:05;;;;;;;6.10;5.10;;;12.20;99.90;;;;;;5118456;28;20237;-46
2023/05/11 01:34:34;;;;;;;5.67;4.77;;;12.20;99.90;;;;;;5117943;28;20173;-47
2023/05/11 01:37:12;;;;;;;6.93;5.50;;;12.20;99.90;;;;;;5117911;28;20670;-46
2023/05/11 01:39:46;;;;;;;5.10;4.60;;;12.20;99.90;;;;;;5118325;28;20243;-46
2023/05/11 01:42:12;;;;;;;5.90;4.43;;;12.20;99.90;;;;;;5119482;28;20567;-46
2023/05/11 01:44:41;;;;;;;5.83;5.23;;;12.20;99.90;;;;;;5123239;28;20167;-46
2023/05/11 01:47:07;;;;;;;6.37;5.53;;;12.20;99.90;;;;;;5128055;28;20175;-47
2023/05/11 01:49:37;;;;;;;5.87;5.27;;;12.10;99.90;;;;;;5122912;28;20752;-46
2023/05/11 01:52:06;;;;;;;6.33;5.20;;;12.20;99.90;;;;;;5117943;28;20178;-46
2023/05/11 01:54:34;;;;;;;5.70;5.10;;;12.20;99.90;;;;;;5117622;28;20174;-47
2023/05/11 01:57:01;;;;;;;6.03;5.43;;;12.10;99.90;;;;;;5117671;28;20618;-47
2023/05/11 01:59:28;;;;;;;7.97;6.03;;;12.00;99.90;;;;;;5117402;28;20198;-48
2023/05/11 02:01:55;;;;;;;6.40;5.70;;;12.00;99.90;;;;;;5117323;28;20181;-47
2023/05/11 02:04:22;;;;;;;6.27;5.67;;;12.00;99.90;;;;;;5117262;28;20232;-46
2023/05/11 02:06:49;;;;;;;6.53;5.83;;;12.00;99.90;;;;;;5117220;28;20167;-46
2023/05/11 02:09:20;;;;;;;8.43;5.97;;;12.00;99.90;;;;;;5117115;28;20178;-46
2023/05/11 02:11:47;;;;;;;6.37;5.60;;;11.90;99.90;;;;;;5117084;28;20190;-46
2023/05/11 02:14:16;;;;;;;7.77;6.63;;;11.90;99.90;;;;;;5117432;28;20198;-46
2023/05/11 02:16:43;;;;;;;9.07;6.87;;;11.90;99.90;;;;;;5117181;28;20600;-48
2023/05/11 02:19:11;;;;;;;9.00;7.00;;;11.90;99.90;;;;;;5117305;28;20171;-47
2023/05/11 02:21:38;;;;;;;8.87;7.37;;;11.90;99.90;;;;;;5117103;28;20694;-46
2023/05/11 02:24:06;;;;;;;7.93;7.03;;;11.90;99.90;;;;;;5117005;28;20198;-46
2023/05/11 02:26:32;;;;;;;9.13;7.73;;;11.90;99.90;;;;;;5117220;28;20182;-46
2023/05/11 02:28:57;;;;;;;9.43;6.87;;;11.90;99.90;;;;;;5117902;28;20308;-47
2023/05/11 02:31:27;;;;;;;9.83;6.80;;;11.90;99.90;;;;;;5116825;28;20185;-47
2023/05/11 02:33:58;;;;;;;9.53;7.13;;;11.80;99.90;;;;;;5116990;28;20194;-44
2023/05/11 02:36:28;;;;;;;8.33;6.60;;;11.90;99.90;;;;;;5116743;28;20559;-45
2023/05/11 02:39:04;;;;;;;11.53;6.90;;;11.90;99.90;;;;;;5116633;28;20266;-46
2023/05/11 02:41:32;;;;;;;9.93;7.47;;;11.80;99.90;;;;;;5115331;28;20235;-46
2023/05/11 02:44:02;;;;;;;10.10;7.20;;;11.90;99.90;;;;;;5116663;28;20199;-46
2023/05/11 02:46:33;;;;;;;9.33;7.43;;;11.90;99.90;;;;;;5117027;28;20169;-45
2023/05/11 02:49:01;;;;;;;9.40;7.60;;;11.90;99.90;;;;;;5116669;28;20178;-45
2023/05/11 02:51:37;;;;;;;7.97;6.80;;;11.80;99.90;;;;;;5116448;28;20174;-47
2023/05/11 02:54:06;;;;;;;8.87;7.07;;;11.80;99.90;;;;;;5116584;28;20255;-47
2023/05/11 02:56:32;;;;;;;9.43;7.50;;;11.80;99.90;;;;;;5116463;28;20224;-46
2023/05/11 02:58:58;;;;;;;10.55;7.60;;;11.80;99.90;;;;;;5116314;28;20599;-46
2023/05/11 03:01:23;;;;;;;9.73;7.80;;;11.80;99.90;;;;;;5116137;28;20401;-47
2023/05/11 03:03:49;;;;;;;8.57;7.10;;;11.80;99.90;;;;;;5115948;28;20560;-46
2023/05/11 03:06:15;;;;;;;10.40;7.30;;;11.80;99.90;;;;;;5116056;28;20183;-45
2023/05/11 03:08:41;;;;;;;8.33;7.30;;;11.80;99.90;;;;;;5116001;28;20186;-46
2023/05/11 03:11:08;;;;;;;10.07;7.83;;;11.80;99.90;;;;;;5114668;28;20178;-45
2023/05/11 03:13:34;;;;;;;9.23;7.70;;;11.80;99.90;;;;;;5115802;28;20216;-46
2023/05/11 03:16:01;;;;;;;12.80;7.70;;;11.80;99.90;;;;;;5115890;28;20634;-45
2023/05/11 03:18:28;;;;;;;10.30;7.23;;;11.80;99.90;;;;;;5116106;28;20185;-45
2023/05/11 03:20:55;;;;;;;10.07;7.90;;;11.80;99.90;;;;;;5116061;28;20213;-46
2023/05/11 03:23:21;;;;;;;9.73;7.73;;;11.80;99.90;;;;;;5115925;28;20229;-48
2023/05/11 03:25:47;;;;;;;12.40;7.93;;;11.80;99.90;;;;;;5115639;28;20179;-46
2023/05/11 03:28:13;;;;;;;12.93;8.27;;;11.80;99.90;;;;;;5115993;28;20181;-45
2023/05/11 03:30:42;;;;;;;10.30;7.67;;;11.80;99.90;;;;;;5115955;28;20182;-45
2023/05/11 03:33:07;;;;;;;9.50;8.17;;;11.80;99.90;;;;;;5115804;28;20206;-45
2023/05/11 03:35:35;;;;;;;10.90;8.63;;;11.80;99.90;;;;;;5115948;28;20182;-45
2023/05/11 03:38:02;;;;;;;11.30;9.40;;;11.80;99.90;;;;;;5115287;28;20662;-46
2023/05/11 03:40:30;;;;;;;11.67;8.53;;;11.80;99.90;;;;;;5115515;28;20244;-45
2023/05/11 03:42:56;;;;;;;11.13;8.63;;;11.80;99.90;;;;;;5114660;28;20189;-46
2023/05/11 03:45:24;;;;;;;15.83;9.23;;;11.80;99.90;;;;;;5115197;28;20203;-46
2023/05/11 03:47:52;;;;;;;14.13;9.73;;;11.80;99.90;;;;;;5115295;28;20705;-45
2023/05/11 03:50:20;;;;;;;11.77;9.60;;;11.80;99.90;;;;;;5115201;28;20570;-44
2023/05/11 03:52:46;;;;;;;15.70;9.60;;;11.80;99.90;;;;;;5115312;28;20194;-46
2023/05/11 03:55:12;;;;;;;10.13;9.07;;;11.80;99.90;;;;;;5115948;28;20236;-45
2023/05/11 03:57:38;;;;;;;11.63;9.83;;;11.80;99.90;;;;;;5115333;28;20170;-45
2023/05/11 04:00:06;;;;;;;13.17;9.73;;;11.90;99.90;;;;;;5114961;28;20194;-47
2023/05/11 04:02:33;;;;;;;13.40;10.00;;;11.80;99.90;;;;;;5115147;28;20561;-48
2023/05/11 04:04:59;;;;;;;9.37;8.33;;;11.80;99.90;;;;;;5114933;27;20195;-46
2023/05/11 04:07:25;;;;;;;15.77;10.20;;;11.90;99.90;;;;;;5114815;28;20166;-47
2023/05/11 04:09:50;;;;;;;14.50;9.53;;;11.80;99.90;;;;;;5115231;28;20182;-46
2023/05/11 04:12:16;;;;;;;11.87;9.97;;;11.80;99.90;;;;;;5114743;28;20280;-48
2023/05/11 04:14:42;;;;;;;12.13;8.83;;;11.80;99.90;;;;;;5114737;28;20190;-47
2023/05/11 04:17:07;;;;;;;11.90;9.57;;;11.80;99.90;;;;;;5114958;28;20259;-45
2023/05/11 04:19:33;;;;;;;13.73;9.27;;;11.90;99.90;;;;;;5114930;28;20624;-47
2023/05/11 04:21:58;;;;;;;10.07;9.03;;;11.90;99.90;;;;;;5114561;28;20177;-46
2023/05/11 04:24:24;;;;;;;12.03;9.40;;;11.80;99.90;;;;;;5113570;28;20181;-44
2023/05/11 04:26:55;;;;;;;15.30;9.83;;;11.90;99.90;;;;;;5114492;28;20170;-46
2023/05/11 04:29:20;;;;;;;11.63;8.97;;;11.90;99.90;;;;;;5114703;28;20176;-47
2023/05/11 04:31:46;;;;;;;12.53;9.70;;;11.90;99.90;;;;;;5114398;28;20182;-47
2023/05/11 04:34:12;;;;;;;12.93;9.67;;;11.90;99.90;;;;;;5114290;28;20255;-46
2023/05/11 04:36:37;;;;;;;17.50;9.47;;;11.90;99.90;;;;;;5114215;28;20198;-48
2023/05/11 04:39:03;;;;;;;10.63;9.13;;;11.90;99.90;;;;;;5114174;28;20182;-46
2023/05/11 04:41:29;;;;;;;14.63;10.33;;;11.90;99.90;;;;;;5114549;28;20180;-45
2023/05/11 04:43:54;;;;;;;10.63;8.57;;;12.00;99.90;;;;;;5114156;28;20194;-45
2023/05/11 04:46:21;;;;;;;11.03;9.57;;;11.90;99.90;;;;;;5114430;28;20261;-47
2023/05/11 04:48:47;;;;;;;12.47;9.90;;;11.90;99.90;;;;;;5114077;28;20228;-46
2023/05/11 04:51:12;;;;;;;10.50;9.40;;;11.90;99.90;;;;;;5114397;28;20578;-47
2023/05/11 04:53:38;;;;;;;12.10;9.13;;;11.90;99.90;;;;;;5113715;28;20618;-48
2023/05/11 04:56:04;;;;;;;12.57;9.20;;;12.00;99.90;;;;;;5114011;28;20185;-46
2023/05/11 04:58:29;;;;;;;17.10;9.30;;;11.90;99.90;;;;;;5114175;28;20177;-46
2023/05/11 05:00:55;;;;;;;11.50;8.83;;;12.00;99.90;;;;;;5114856;28;20273;-50
2023/05/11 05:03:21;;;;;;;12.13;9.93;;;12.00;99.90;;;;;;5114104;28;20208;-52
2023/05/11 05:05:46;;;;;;;11.83;9.53;;;12.00;99.90;;;;;;5124752;28;20170;-50
2023/05/11 05:08:13;;;;;;;10.50;9.27;;;12.00;99.90;;;;;;5125791;28;20182;-50
2023/05/11 05:10:38;;;;;;;13.67;9.90;;;12.00;99.90;;;;;;5113909;28;20617;-51
2023/05/11 05:13:04;;;;;;;11.33;9.37;;;12.00;99.90;;;;;;5115285;28;20285;-50
2023/05/11 05:15:30;;;;;;;13.00;10.20;;;12.00;99.90;;;;;;5115026;28;20178;-50
2023/05/11 05:17:55;;;;;;;13.67;10.20;;;12.10;99.90;;;;;;5114146;28;20273;-50
2023/05/11 05:20:21;;;;;;;11.23;9.93;;;12.10;99.90;;;;;;5113994;28;20205;-51
2023/05/11 05:22:46;;;;;;;14.23;10.80;;;12.20;99.90;;;;;;5113770;28;20250;-51
2023/05/11 05:25:12;;;;;;;14.43;10.33;;;12.30;99.90;;;;;;5113991;28;20284;-50
2023/05/11 05:27:37;;;;;;;13.67;10.70;;;12.40;99.90;;;;;;5114388;28;20205;-51
2023/05/11 05:30:03;;;;;;;15.47;11.07;;;12.40;99.90;;;;;;5113705;28;20189;-49
2023/05/11 05:32:29;;;;;;;13.47;11.03;;;12.50;99.90;;;;;;5113615;28;20202;-53
2023/05/11 05:34:55;;;;;;;14.67;11.43;;;12.50;99.90;;;;;;5114167;28;20575;-51
2023/05/11 05:37:20;;;;;;;13.30;10.63;;;12.50;99.90;;;;;;5113525;28;20205;-53
2023/05/11 05:39:46;;;;;;;13.90;11.47;;;12.50;99.90;;;;;;5113412;28;20268;-50
2023/05/11 05:42:12;;;;;;;16.30;11.20;;;12.60;99.90;;;;;;5113569;28;20174;-50
2023/05/11 05:44:37;;;;;;;16.57;11.20;;;12.60;99.90;;;;;;5113534;28;20213;-51
2023/05/11 05:47:03;;;;;;;11.97;10.77;;;12.70;99.90;;;;;;5113557;28;20175;-52
2023/05/11 05:49:29;;;;;;;14.17;11.10;;;12.70;99.90;;;;;;5113549;28;20182;-51
2023/05/11 05:51:57;;;;;;;13.70;10.83;;;12.70;99.90;;;;;;5113742;28;20186;-51
2023/05/11 05:54:23;;;;;;;14.07;11.10;;;12.80;99.90;;;;;;5113923;28;20162;-49
2023/05/11 05:56:49;;;;;;;15.00;11.40;;;12.80;99.90;;;;;;5113521;28;20186;-50
2023/05/11 05:59:14;;;;;;;17.50;10.77;;;12.80;99.90;;;;;;5113715;28;20186;-51
2023/05/11 06:01:44;;;;;;;14.23;11.67;;;12.80;99.90;;;;;;5113421;28;20181;-50
2023/05/11 06:04:11;;;;;;;14.47;11.57;;;12.80;99.90;;;;;;5113328;28;20202;-52
2023/05/11 06:06:37;;;;;;;13.97;11.57;;;12.90;99.90;;;;;;5116998;28;20542;-49
2023/05/11 06:09:02;;;;;;;13.27;11.80;;;13.00;99.90;;;;;;5117168;28;20186;-52
2023/05/11 06:11:28;;;;;;;16.73;12.00;;;13.10;99.90;;;;;;5117565;28;20205;-51
2023/05/11 06:13:54;;;;;;;14.73;11.37;;;13.20;99.90;;;;;;5117322;28;20263;-51
2023/05/11 06:16:19;;;;;;;15.13;11.63;;;13.20;99.90;;;;;;5117688;28;20182;-52
2023/05/11 06:18:45;;;;;;;14.33;11.63;;;13.30;99.90;;;;;;5117280;28;20189;-51
2023/05/11 06:21:11;;;;;;;16.13;11.23;;;13.50;99.90;;;;;;5116963;28;20244;-52
2023/05/11 06:23:36;;;;;;;14.97;11.77;;;13.60;99.90;;;;;;5117217;28;20293;-51
2023/05/11 06:26:03;;;;;;;16.73;12.03;;;13.60;99.90;;;;;;5116891;28;20705;-50
2023/05/11 06:28:28;;;;;;;18.57;12.70;;;13.70;99.90;;;;;;5116932;28;20228;-49
2023/05/11 06:30:58;;;;;;;20.83;12.23;;;13.70;99.90;;;;;;5117025;28;20592;-52
2023/05/11 06:33:26;;;;;;;19.10;12.47;;;13.70;99.90;;;;;;5117108;28;20236;-46
2023/05/11 06:35:52;;;;;;;17.33;12.03;;;13.70;99.90;;;;;;5116697;28;20178;-46
2023/05/11 06:38:17;;;;;;;17.43;12.63;;;13.70;99.90;;;;;;5117145;28;20285;-46
2023/05/11 06:40:43;;;;;;;19.00;12.53;;;13.70;99.90;;;;;;5116983;28;20216;-46
2023/05/11 06:43:09;;;;;;;16.80;11.80;;;13.60;99.90;;;;;;5116732;28;20559;-47
2023/05/11 06:45:35;;;;;;;20.37;11.60;;;13.60;99.90;;;;;;5116845;28;20178;-47
2023/05/11 06:48:02;;;;;;;18.40;11.47;;;13.70;99.90;;;;;;5115171;28;20183;-48
2023/05/11 06:50:27;;;;;;;21.43;12.07;;;13.70;99.90;;;;;;5116668;28;20551;-48
2023/05/11 06:52:53;;;;;;;19.77;13.00;;;13.70;99.90;;;;;;5116737;28;20198;-46
2023/05/11 06:55:18;;;;;;;15.23;11.60;;;13.70;99.90;;;;;;5116323;28;20184;-47
2023/05/11 06:57:44;;;;;;;16.07;11.57;;;13.70;99.90;;;;;;5116363;28;20182;-44
2023/05/11 07:00:10;;;;;;;22.80;11.17;;;13.70;99.90;;;;;;5116443;28;20251;-45
2023/05/11 07:02:35;;;;;;;14.97;12.20;;;13.70;99.90;;;;;;5116106;28;20190;-47
2023/05/11 07:05:01;;;;;;;19.17;11.70;;;13.80;99.90;;;;;;5116153;28;20255;-46
2023/05/11 07:07:27;;;;;;;17.90;11.63;;;13.80;99.90;;;;;;5114893;28;20185;-48
2023/05/11 07:09:52;;;;;;;14.43;11.40;;;13.80;99.90;;;;;;5116314;28;20182;-47
2023/05/11 07:12:18;;;;;;;15.87;11.57;;;13.90;99.90;;;;;;5116117;28;20194;-47
2023/05/11 07:14:44;;;;;;;15.70;10.83;;;13.90;99.90;;;;;;5116206;28;20181;-47
2023/05/11 07:17:09;;;;;;;14.63;9.50;;;14.00;99.90;;;;;;5115103;28;20512;-45
2023/05/11 07:19:35;;;;;;;13.60;9.73;;;14.00;99.90;;;;;;5115778;28;20194;-47
2023/05/11 07:22:01;;;;;;;16.57;10.13;;;14.00;99.90;;;;;;5115961;28;20170;-47
2023/05/11 07:24:27;;;;;;;12.97;9.10;;;14.00;99.90;;;;;;5115757;28;20227;-47
2023/05/11 07:26:52;;;;;;;19.07;9.93;;;13.90;99.90;;;;;;5115731;28;20159;-47
2023/05/11 07:29:18;;;;;;;13.97;9.40;;;13.90;99.90;;;;;;5115708;28;20171;-47
2023/05/11 07:31:43;;;;;;;15.53;9.40;;;13.90;99.90;;;;;;5115744;28;20181;-46
2023/05/11 07:34:09;;;;;;;12.53;9.23;;;13.90;99.90;;;;;;5115689;28;20186;-47
2023/05/11 07:36:35;;;;;;;12.37;8.77;;;13.80;99.90;;;;;;5115659;28;20190;-46
2023/05/11 07:39:00;;;;;;;13.77;9.17;;;13.80;99.90;;;;;;5115642;28;20231;-45
2023/05/11 07:41:29;;;;;;;13.07;9.00;;;13.80;99.90;;;;;;5115471;28;20221;-46
2023/05/11 07:43:55;;;;;;;13.63;9.60;;;13.90;99.90;;;;;;5115408;28;20186;-45
2023/05/11 07:46:21;;;;;;;13.70;9.27;;;13.90;99.90;;;;;;5115352;28;20235;-46
2023/05/11 07:48:46;;;;;;;11.30;9.03;;;14.00;99.90;;;;;;5114071;28;20265;-45
2023/05/11 07:51:12;;;;;;;14.47;9.00;;;14.00;99.90;;;;;;5115562;28;20170;-47
2023/05/11 07:53:38;;;;;;;14.47;8.83;;;14.10;99.90;;;;;;5115136;28;20205;-47
2023/05/11 07:56:04;;;;;;;12.93;8.73;;;14.10;99.90;;;;;;5115066;28;20205;-46
2023/05/11 07:58:29;;;;;;;12.83;9.03;;;14.20;99.90;;;;;;5115327;28;20269;-47
2023/05/11 08:00:56;;;;;;;13.53;8.73;;;14.20;99.90;;;;;;5115433;28;20201;-47
2023/05/11 08:03:21;;;;;;;10.57;7.60;;;14.30;99.90;;;;;;5114899;28;20647;-46
2023/05/11 08:05:47;;;;;;;13.13;8.43;;;14.40;99.90;;;;;;5115512;28;20264;-46
2023/05/11 08:08:13;;;;;;;10.50;7.77;;;14.40;99.90;;;;;;5115164;28;20209;-47
2023/05/11 08:10:38;;;;;;;14.10;8.80;;;14.50;99.90;;;;;;5114834;28;20594;-45
2023/05/11 08:13:04;;;;;;;12.77;9.20;;;14.60;99.90;;;;;;5114746;28;20222;-45
2023/05/11 08:15:30;;;;;;;14.13;8.97;;;14.50;99.90;;;;;;5113581;28;20170;-46
2023/05/11 08:17:55;;;;;;;15.37;9.37;;;14.50;99.90;;;;;;5114843;28;20178;-46
2023/05/11 08:20:21;;;;;;;11.97;8.23;;;14.50;99.90;;;;;;5114585;28;20205;-46
2023/05/11 08:22:47;;;;;;;15.57;9.23;;;14.50;99.90;;;;;;5114557;28;20195;-47
2023/05/11 08:25:13;;;;;;;16.63;8.97;;;14.50;99.90;;;;;;5114828;28;20174;-47
2023/05/11 08:27:39;;;;;;;13.30;8.50;;;14.50;99.90;;;;;;5114825;28;20193;-46
2023/05/11 08:30:05;;;;;;;13.30;7.87;;;14.50;99.90;;;;;;5115163;28;20176;-46
2023/05/11 08:32:31;;;;;;;12.17;7.93;;;14.60;99.90;;;;;;5114862;28;20206;-46
2023/05/11 08:34:56;;;;;;;15.73;7.83;;;14.70;99.90;;;;;;5126036;28;20243;-46
2023/05/11 08:37:22;;;;;;;11.87;7.60;;;14.60;99.90;;;;;;5128901;28;20202;-46
2023/05/11 08:39:47;;;;;;;12.70;7.67;;;14.60;99.90;;;;;;5120319;28;20658;-47
2023/05/11 08:42:16;;;;;;;12.13;7.50;;;14.70;99.90;;;;;;5115205;28;20544;-47
2023/05/11 08:44:43;;;;;;;12.03;7.33;;;14.70;99.90;;;;;;5113403;28;20595;-45
2023/05/11 08:47:10;;;;;;;11.27;7.07;;;14.80;99.90;;;;;;5114823;28;20293;-46
2023/05/11 08:49:36;;;;;;;13.70;6.90;;;14.80;99.90;;;;;;5114698;28;20644;-47
2023/05/11 08:52:04;;;;;;;9.43;6.93;;;14.90;99.90;;;;;;5114181;28;20180;-47
2023/05/11 08:54:30;;;;;;;11.63;7.77;;;15.00;99.90;;;;;;5114443;28;20590;-47
2023/05/11 08:56:57;;;;;;;13.27;7.50;;;15.00;99.90;;;;;;5114287;28;20175;-48
2023/05/11 08:59:26;;;;;;;11.97;7.57;;;15.00;99.90;;;;;;5114327;28;20281;-47
2023/05/11 09:01:53;;;;;;;12.07;7.50;;;15.00;99.90;;;;;;5114399;28;20215;-47
2023/05/11 09:04:20;;;;;;;11.37;6.77;;;15.10;99.90;;;;;;5114090;28;20209;-48
2023/05/11 09:06:46;;;;;;;12.17;7.50;;;15.20;99.90;;;;;;5114035;28;20608;-46
2023/05/11 09:09:12;;;;;;;10.83;7.23;;;15.20;99.90;;;;;;5114056;28;20205;-48
2023/05/11 09:11:38;;;;;;;11.23;7.80;;;15.30;99.90;;;;;;5113985;28;20231;-48
2023/05/11 09:14:04;;;;;;;10.70;7.07;;;15.30;99.90;;;;;;5114250;28;20209;-46
2023/05/11 09:16:30;;;;;;;15.30;8.53;;;15.30;99.90;;;;;;5113960;28;20623;-47
2023/05/11 09:18:59;;;;;;;12.57;7.43;;;15.30;99.90;;;;;;5113725;28;20220;-47
2023/05/11 09:21:26;;;;;;;11.67;7.77;;;15.50;99.90;;;;;;5114101;28;20626;-47
2023/05/11 09:23:54;;;;;;;12.00;7.80;;;15.50;99.90;;;;;;5113859;28;20198;-48
2023/05/11 09:26:23;;;;;;;13.70;8.03;;;15.60;99.90;;;;;;5113721;28;20563;-46
2023/05/11 09:28:56;;;;;;;10.23;7.77;;;15.70;99.90;;;;;;5114002;28;20261;-48
2023/05/11 09:31:45;;;;;;;11.07;8.37;;;15.90;99.90;;;;;;5113970;28;20688;-47
2023/05/11 09:34:12;;;;;;;11.23;7.63;;;16.00;99.90;;;;;;5113761;28;20197;-47
2023/05/11 09:36:38;;;;;;;9.40;7.77;;;16.10;99.90;;;;;;5113409;28;20661;-48
2023/05/11 09:39:04;;;;;;;10.50;7.30;;;16.20;99.90;;;;;;5113936;28;20190;-47
2023/05/11 09:41:30;;;;;;;13.43;7.67;;;16.40;99.90;;;;;;5117181;28;20229;-48
2023/05/11 09:44:13;;;;;;;11.33;8.67;;;16.60;99.90;;;;;;5117645;28;20194;-47
2023/05/11 09:46:44;;;;;;;11.60;8.53;;;16.70;99.90;;;;;;5117984;28;20562;-47
2023/05/11 09:49:10;;;;;;;9.77;7.93;;;16.80;99.90;;;;;;5117960;28;20171;-45
2023/05/11 09:51:39;;;;;;;11.73;7.80;;;16.90;99.90;;;;;;5117567;28;20186;-47
2023/05/11 09:54:19;;;;;;;10.00;7.70;;;17.00;99.90;;;;;;5117466;28;20198;-48
2023/05/11 09:56:46;;;;;;;11.37;7.57;;;17.00;99.90;;;;;;5117393;28;20166;-47
2023/05/11 09:59:14;;;;;;;11.20;7.90;;;17.10;99.90;;;;;;5117616;28;20212;-49
2023/05/11 10:01:40;;;;;;;13.63;7.90;;;17.20;99.90;;;;;;5117450;28;20546;-47
2023/05/11 10:04:07;;;;;;;11.43;8.87;;;17.30;99.90;;;;;;5117453;28;20198;-47
2023/05/11 10:06:48;;;;;;;12.97;8.20;;;17.40;99.90;;;;;;5117205;28;20179;-47
2023/05/11 10:09:21;;;;;;;12.37;8.63;;;17.50;99.90;;;;;;5117338;28;20165;-47
2023/05/11 10:11:47;;;;;;;12.53;8.47;;;17.60;99.90;;;;;;5117421;28;20532;-46
2023/05/11 10:14:14;;;;;;;8.63;7.73;;;17.60;99.90;;;;;;5117322;28;20281;-48
2023/05/11 10:16:41;;;;;;;11.00;7.67;;;17.70;99.90;;;;;;5117296;28;20188;-46
2023/05/11 10:19:07;;;;;;;12.87;8.00;;;17.70;99.90;;;;;;5117318;28;20248;-47
2023/05/11 10:21:34;;;;;;;9.53;6.77;;;17.80;99.90;;;;;;5117171;28;20198;-46
2023/05/11 10:24:01;;;;;;;9.53;6.50;;;17.70;99.90;;;;;;5117097;28;20202;-47
2023/05/11 10:26:29;;;;;;;10.10;6.10;;;17.60;99.90;;;;;;5116783;28;20182;-47
2023/05/11 10:28:55;;;;;;;8.37;6.03;;;17.40;99.90;;;;;;5116973;28;20163;-48
2023/05/11 10:31:23;;;;;;;7.17;5.33;;;17.40;99.90;;;;;;5116811;28;20185;-45
2023/05/11 10:33:50;;;;;;;8.97;5.90;;;17.30;99.90;;;;;;5116666;28;20202;-48
2023/05/11 10:36:17;;;;;;;8.37;5.70;;;17.20;99.90;;;;;;5116767;28;20190;-48
2023/05/11 10:38:43;;;;;;;10.23;6.10;;;17.20;99.90;;;;;;5116888;28;20174;-48
2023/05/11 10:41:25;;;;;;;8.70;6.33;;;17.20;99.90;;;;;;5116824;28;20198;-48
2023/05/11 10:44:06;;;;;;;9.27;6.20;;;17.20;99.90;;;;;;5116890;28;20198;-51
2023/05/11 10:46:59;;;;;;;10.67;6.33;;;17.10;99.90;;;;;;5116782;28;20158;-52
2023/05/11 10:49:33;;;;;;;8.87;6.57;;;17.10;99.90;;;;;;5116741;28;20208;-52
2023/05/11 10:51:59;;;;;;;8.90;5.57;;;17.20;99.90;;;;;;5114922;28;20169;-51
2023/05/11 10:54:27;;;;;;;6.87;5.63;;;17.20;99.90;;;;;;5116567;28;20257;-52
2023/05/11 10:57:05;;;;;;;8.37;5.00;;;17.20;99.90;;;;;;5116330;28;20570;-52
2023/05/11 11:00:15;;;;;;;9.13;5.70;;;17.20;99.90;;;;;;5116480;28;20166;-51
2023/05/11 11:02:41;;;;;;;9.00;5.90;;;17.30;99.90;;;;;;5115994;28;20746;-52
2023/05/11 11:05:12;;;;;;;9.03;5.70;;;17.40;99.90;;;;;;5116374;28;20174;-52
2023/05/11 11:07:57;;;;;;;8.13;5.70;;;17.50;99.90;;;;;;5116379;28;20155;-51
2023/05/11 11:10:34;;;;;;;9.13;5.97;;;17.50;99.90;;;;;;5115936;28;20173;-51
2023/05/11 11:13:07;;;;;;;12.30;6.07;;;17.50;99.90;;;;;;5116178;28;20201;-52
2023/05/11 11:15:51;;;;;;;6.83;5.50;;;17.50;99.90;;;;;;5116163;28;20197;-51
2023/05/11 11:18:23;;;;;;;9.80;6.80;;;17.50;99.90;;;;;;5115861;28;20178;-53
2023/05/11 11:20:53;;;;;;;9.80;5.90;;;17.50;99.90;;;;;;5116035;28;20569;-52
2023/05/11 11:23:47;;;;;;;9.63;5.90;;;17.40;99.90;;;;;;5115722;28;20190;-52
2023/05/11 11:26:15;;;;;;;10.47;5.87;;;17.50;99.90;;;;;;5116101;28;20155;-52
2023/05/11 11:28:53;;;;;;;11.53;7.63;;;17.60;99.90;;;;;;5116007;28;20650;-51
2023/05/11 11:31:29;;;;;;;11.63;7.87;;;17.60;99.90;;;;;;5116170;28;20205;-51
2023/05/11 11:34:00;;;;;;;11.97;7.67;;;17.60;99.90;;;;;;5115409;28;20201;-52
2023/05/11 11:36:53;;;;;;;10.03;6.93;;;17.70;99.90;;;;;;5115642;28;20190;-52
2023/05/11 11:39:24;;;;;;;9.50;7.10;;;17.80;99.90;;;;;;5115938;28;20174;-50
2023/05/11 11:42:03;;;;;;;10.17;6.70;;;17.90;99.90;;;;;;5115622;28;20179;-51
2023/05/11 11:44:29;;;;;;;7.83;5.30;;;18.00;99.90;;;;;;5115812;28;20533;-53
2023/05/11 11:47:20;;;;;;;9.93;6.77;;;18.00;99.90;;;;;;5115571;28;20209;-51
2023/05/11 11:49:48;;;;;;;9.63;5.73;;;18.00;99.90;;;;;;5113960;28;20170;-52
2023/05/11 11:52:29;;;;;;;10.83;6.83;;;18.10;99.90;;;;;;5115256;28;20197;-51
2023/05/11 11:54:58;;;;;;;8.40;5.70;;;18.20;99.90;;;;;;5115092;28;20167;-52
2023/05/11 11:57:32;;;;;;;9.17;5.37;;;18.30;99.90;;;;;;5115347;28;20535;-50
2023/05/11 11:59:58;;;;;;;5.40;4.77;;;18.40;99.90;;;;;;5115204;28;20225;-52
2023/05/11 12:02:26;;;;;;;8.83;4.70;;;18.50;99.90;;;;;;5114632;28;20772;-50
2023/05/11 12:05:11;;;;;;;6.17;4.97;;;18.50;99.90;;;;;;5115058;28;20178;-52
2023/05/11 12:07:42;;;;;;;7.63;4.70;;;18.70;99.90;;;;;;5114816;28;20622;-52
2023/05/11 12:10:11;;;;;;;7.67;5.37;;;18.80;99.90;;;;;;5114807;28;20690;-53
2023/05/11 12:12:43;;;;;;;8.17;4.97;;;18.80;99.90;;;;;;5114725;28;20243;-53
2023/05/11 12:15:28;;;;;;;8.43;5.47;;;18.80;99.90;;;;;;5114652;28;20174;-52
2023/05/11 12:17:54;;;;;;;9.63;5.47;;;18.60;99.90;;;;;;5114645;28;20167;-50
2023/05/11 12:20:21;;;;;;;8.47;5.50;;;18.70;99.90;;;;;;5114810;28;20194;-50
2023/05/11 12:22:47;;;;;;;7.33;4.90;;;18.80;99.90;;;;;;5113216;28;20673;-51
2023/05/11 12:25:16;;;;;;;7.77;5.07;;;18.70;99.90;;;;;;5114800;28;20523;-52
2023/05/11 12:27:59;;;;;;;8.97;5.20;;;18.60;99.90;;;;;;5114685;28;20146;-52
2023/05/11 12:30:29;;;;;;;6.23;4.73;;;18.40;99.90;;;;;;5114757;28;20166;-52
2023/05/11 12:32:55;;;;;;;7.53;4.70;;;18.40;99.90;;;;;;5114605;28;20288;-51
2023/05/11 12:35:26;;;;;;;6.33;4.60;;;18.60;99.90;;;;;;5114554;28;20555;-53
2023/05/11 12:37:52;;;;;;;7.80;4.73;;;18.70;99.90;;;;;;5114259;28;20193;-53
2023/05/11 12:40:18;;;;;;;7.70;4.57;;;18.70;99.90;;;;;;5115194;28;20210;-52
2023/05/11 12:42:55;;;;;;;6.97;4.20;;;18.60;99.90;;;;;;5115612;28;20190;-51
2023/05/11 12:45:23;;;;;;;8.37;5.17;;;18.60;99.90;;;;;;5115359;28;20611;-52